Time;durP1;ratioP1;P1;durP2;ratioP2;P2;SDS_P1;SDS_P2;PMS_P1;PMS_P2;Temp;Humidity;BMP_temperature;BMP_pressure;BME280_temperature;BME280_humidity;BME280_pressure;Samples;Min_cycle;Max_cycle;Signal;HPM_P1;HPM_P2
2021/12/06 00:01:48;;;;;;;18.77;16.17;;;6.20;99.90;;;;;;5045455;28;20169;-84
2021/12/06 00:04:23;;;;;;;21.10;16.53;;;6.10;99.90;;;;;;5046258;28;20170;-88
2021/12/06 00:06:54;;;;;;;20.50;16.73;;;6.20;99.90;;;;;;5044655;28;20179;-87
2021/12/06 00:09:23;;;;;;;20.83;17.33;;;6.30;99.90;;;;;;5047434;28;20197;-81
2021/12/06 00:11:56;;;;;;;20.67;17.13;;;6.30;99.90;;;;;;5046890;28;20236;-87
2021/12/06 00:14:27;;;;;;;20.70;17.40;;;6.10;99.90;;;;;;5046011;28;20165;-86
2021/12/06 00:16:55;;;;;;;20.70;17.03;;;6.10;99.90;;;;;;5042803;28;20204;-87
2021/12/06 00:19:22;;;;;;;24.33;18.97;;;6.20;99.90;;;;;;5046348;28;20185;-85
2021/12/06 00:21:48;;;;;;;27.77;21.90;;;6.10;99.90;;;;;;5038690;28;20588;-85
2021/12/06 00:24:14;;;;;;;24.53;20.00;;;6.00;99.90;;;;;;5037601;28;20197;-87
2021/12/06 00:26:39;;;;;;;45.17;33.40;;;6.00;99.90;;;;;;5038583;28;20169;-86
2021/12/06 00:29:05;;;;;;;32.40;25.50;;;5.90;99.90;;;;;;5038520;28;20198;-85
2021/12/06 00:31:33;;;;;;;37.87;31.57;;;5.90;99.90;;;;;;5037758;28;20738;-87
2021/12/06 00:34:04;;;;;;;37.03;29.47;;;5.90;99.90;;;;;;5036283;28;20173;-87
2021/12/06 00:36:34;;;;;;;36.57;28.73;;;6.00;99.90;;;;;;5051706;28;20165;-79
2021/12/06 00:39:03;;;;;;;33.53;27.70;;;6.20;99.90;;;;;;5051441;28;20170;-84
2021/12/06 00:41:29;;;;;;;30.70;25.87;;;6.30;99.90;;;;;;5046480;28;20174;-86
2021/12/06 00:43:54;;;;;;;30.07;23.17;;;6.30;99.90;;;;;;5038748;28;20224;-87
2021/12/06 00:46:22;;;;;;;28.23;23.53;;;6.40;99.90;;;;;;5036306;28;20676;-85
2021/12/06 00:48:47;;;;;;;20.00;16.53;;;6.20;99.90;;;;;;5036600;28;20193;-88
2021/12/06 00:51:15;;;;;;;19.77;16.73;;;6.20;99.90;;;;;;5037601;28;20193;-86
2021/12/06 00:53:43;;;;;;;21.60;17.37;;;6.20;99.90;;;;;;5036806;28;20211;-88
2021/12/06 00:56:11;;;;;;;19.00;15.27;;;6.20;99.90;;;;;;5037819;28;20166;-85
2021/12/06 00:58:37;;;;;;;18.97;16.27;;;6.00;99.90;;;;;;5037241;28;20176;-87
2021/12/06 01:01:04;;;;;;;17.30;15.40;;;5.90;99.90;;;;;;5037019;28;20663;-84
2021/12/06 01:03:33;;;;;;;20.17;15.90;;;6.00;99.90;;;;;;5035829;28;20541;-86
2021/12/06 01:05:58;;;;;;;19.20;15.83;;;6.00;99.90;;;;;;5035045;28;20545;-85
2021/12/06 01:08:24;;;;;;;17.20;14.13;;;6.00;99.90;;;;;;5035846;28;20166;-84
2021/12/06 01:10:51;;;;;;;16.23;13.33;;;5.90;99.90;;;;;;5036208;28;20212;-86
2021/12/06 01:13:18;;;;;;;15.73;13.20;;;5.80;99.90;;;;;;5035313;28;20167;-85
2021/12/06 01:15:44;;;;;;;16.33;13.93;;;5.80;99.90;;;;;;5034559;28;20178;-88
2021/12/06 01:18:13;;;;;;;17.17;13.60;;;5.80;99.90;;;;;;5035822;28;20241;-86
2021/12/06 01:20:51;;;;;;;15.67;13.00;;;5.90;99.90;;;;;;5036258;28;20626;-85
2021/12/06 01:23:20;;;;;;;18.03;14.03;;;6.00;99.90;;;;;;5037155;28;20165;-86
2021/12/06 01:25:57;;;;;;;16.70;13.40;;;5.80;99.90;;;;;;5038730;28;20307;-85
2021/12/06 01:41:40;;;;;;;18.07;13.90;;;6.00;99.90;;;;;;5036603;28;20185;-86
2021/12/06 01:44:24;;;;;;;17.93;14.43;;;6.10;99.90;;;;;;5036286;28;20197;-86
2021/12/06 01:47:00;;;;;;;17.47;13.57;;;6.00;99.90;;;;;;5034433;28;20184;-85
2021/12/06 01:49:28;;;;;;;18.07;13.73;;;6.00;99.90;;;;;;5036515;28;20185;-87
2021/12/06 01:51:59;;;;;;;17.97;14.70;;;6.00;99.90;;;;;;5034843;28;20220;-87
2021/12/06 01:54:25;;;;;;;20.23;14.60;;;6.10;99.90;;;;;;5033780;28;20668;-86
2021/12/06 01:56:52;;;;;;;18.83;15.40;;;6.20;99.90;;;;;;5034509;28;20169;-85
2021/12/06 01:59:20;;;;;;;19.03;16.13;;;6.10;99.90;;;;;;5033845;28;20181;-83
2021/12/06 02:01:45;;;;;;;20.83;17.30;;;6.10;99.90;;;;;;5034533;28;20252;-85
2021/12/06 02:04:12;;;;;;;21.47;16.63;;;6.10;99.90;;;;;;5053288;28;20166;-85
2021/12/06 02:06:39;;;;;;;19.53;15.97;;;6.10;99.90;;;;;;5058157;28;20207;-83
2021/12/06 02:09:12;;;;;;;19.73;16.70;;;6.10;99.90;;;;;;5056902;28;20154;-82
2021/12/06 02:11:39;;;;;;;21.37;16.90;;;6.10;99.90;;;;;;5046399;28;20205;-84
2021/12/06 02:17:13;;;;;;;22.77;17.33;;;6.20;99.90;;;;;;5034840;28;20680;-85
2021/12/06 02:19:45;;;;;;;22.47;16.50;;;6.00;99.90;;;;;;5035324;28;20169;-86
2021/12/06 02:22:26;;;;;;;20.90;15.73;;;6.00;99.90;;;;;;5032617;28;20599;-86
2021/12/06 02:24:54;;;;;;;19.53;15.43;;;5.80;99.90;;;;;;5037513;28;20166;-85
2021/12/06 02:27:22;;;;;;;19.63;14.97;;;5.70;99.90;;;;;;5058366;28;20150;-80
2021/12/06 02:29:50;;;;;;;21.50;17.50;;;5.70;99.90;;;;;;5057728;28;20196;-83
2021/12/06 02:32:16;;;;;;;23.97;18.07;;;5.80;99.90;;;;;;5055786;28;20208;-83
2021/12/06 02:34:46;;;;;;;23.87;18.13;;;5.80;99.90;;;;;;5050615;28;20225;-84
2021/12/06 02:37:19;;;;;;;23.63;17.87;;;5.80;99.90;;;;;;5036420;28;20161;-86
2021/12/06 02:39:45;;;;;;;22.60;17.73;;;5.70;99.90;;;;;;5043385;28;20162;-85
2021/12/06 02:42:15;;;;;;;20.93;15.87;;;5.70;99.90;;;;;;5056502;28;20180;-82
2021/12/06 02:44:42;;;;;;;22.93;18.20;;;5.70;99.90;;;;;;5056131;28;20154;-80
2021/12/06 02:47:08;;;;;;;23.57;17.70;;;5.70;99.90;;;;;;5051440;28;20177;-79
2021/12/06 02:49:40;;;;;;;22.80;17.37;;;5.70;99.90;;;;;;5049006;28;20202;-80
2021/12/06 02:52:07;;;;;;;21.87;17.47;;;5.70;99.90;;;;;;5044296;28;20201;-78
2021/12/06 02:54:56;;;;;;;24.67;18.27;;;5.70;99.90;;;;;;5044934;28;20166;-81
2021/12/06 02:57:32;;;;;;;25.80;19.90;;;5.70;99.90;;;;;;5034078;28;20198;-82
2021/12/06 03:00:03;;;;;;;26.30;18.47;;;5.60;99.90;;;;;;5033645;28;20645;-79
2021/12/06 03:02:30;;;;;;;25.40;19.37;;;5.60;99.90;;;;;;5035117;28;20170;-84
2021/12/06 03:04:56;;;;;;;26.07;20.30;;;5.50;99.90;;;;;;5032566;28;20170;-84
2021/12/06 03:07:25;;;;;;;24.40;20.30;;;5.50;99.90;;;;;;5033415;28;20173;-82
2021/12/06 03:09:53;;;;;;;27.30;21.10;;;5.40;99.90;;;;;;5033946;28;20565;-84
2021/12/06 03:12:22;;;;;;;25.73;20.03;;;5.40;99.90;;;;;;5034404;28;20180;-84
2021/12/06 03:14:57;;;;;;;28.23;21.50;;;5.30;99.90;;;;;;5034380;28;20355;-80
2021/12/06 03:17:27;;;;;;;26.00;20.80;;;5.20;99.90;;;;;;5033341;28;20175;-85
2021/12/06 03:19:53;;;;;;;29.70;22.17;;;5.20;99.90;;;;;;5031710;28;20281;-86
2021/12/06 03:22:19;;;;;;;30.97;22.93;;;5.30;99.90;;;;;;5033150;28;20590;-86
2021/12/06 03:24:45;;;;;;;28.93;22.37;;;5.40;99.90;;;;;;5033749;28;20166;-87
2021/12/06 03:27:13;;;;;;;30.43;23.40;;;5.40;99.90;;;;;;5033567;28;20170;-87
2021/12/06 03:29:40;;;;;;;28.60;22.70;;;5.30;99.90;;;;;;5033875;28;20196;-83
2021/12/06 03:32:07;;;;;;;27.57;21.80;;;5.40;99.90;;;;;;5039618;28;20237;-81
2021/12/06 03:34:33;;;;;;;25.83;21.47;;;5.50;99.90;;;;;;5044935;28;20173;-78
2021/12/06 03:37:03;;;;;;;27.90;21.60;;;5.70;99.90;;;;;;5044168;28;20604;-82
2021/12/06 03:39:33;;;;;;;26.47;20.43;;;5.60;99.90;;;;;;5044275;28;20229;-79
2021/12/06 03:42:02;;;;;;;27.07;21.43;;;5.50;99.90;;;;;;5040067;28;20197;-79
2021/12/06 03:44:29;;;;;;;26.37;20.27;;;5.60;99.90;;;;;;5041865;28;20257;-86
2021/12/06 03:47:03;;;;;;;30.77;23.33;;;5.30;99.90;;;;;;5052105;28;20178;-81
2021/12/06 03:49:30;;;;;;;28.63;22.50;;;5.30;99.90;;;;;;5056756;28;20173;-80
2021/12/06 03:51:59;;;;;;;30.30;23.90;;;5.20;99.90;;;;;;5057968;28;20210;-86
2021/12/06 03:54:31;;;;;;;31.20;24.20;;;5.10;99.90;;;;;;5054885;28;20162;-82
2021/12/06 03:57:04;;;;;;;32.00;24.40;;;5.30;99.90;;;;;;5042160;28;20193;-85
2021/12/06 03:59:30;;;;;;;33.80;25.63;;;5.20;99.90;;;;;;5039251;28;20174;-87
2021/12/06 04:01:56;;;;;;;34.17;25.30;;;5.20;99.90;;;;;;5040156;28;20212;-84
2021/12/06 04:04:22;;;;;;;32.57;24.87;;;5.20;99.90;;;;;;5039710;28;20201;-84
2021/12/06 04:06:52;;;;;;;32.93;25.20;;;5.20;99.90;;;;;;5038445;28;20178;-83
2021/12/06 04:09:21;;;;;;;33.73;25.33;;;5.30;99.90;;;;;;5043345;28;20229;-86
2021/12/06 04:11:48;;;;;;;35.63;26.50;;;5.40;99.90;;;;;;5039372;28;20658;-87
2021/12/06 04:14:17;;;;;;;36.70;25.00;;;5.40;99.90;;;;;;5042122;28;20154;-80
2021/12/06 04:16:44;;;;;;;33.37;25.40;;;5.50;99.90;;;;;;5056385;28;20182;-76
2021/12/06 04:19:10;;;;;;;33.83;25.47;;;5.50;99.90;;;;;;5056747;28;20162;-79
2021/12/06 04:21:37;;;;;;;36.70;27.40;;;5.50;99.90;;;;;;5058209;28;20158;-79
2021/12/06 04:24:03;;;;;;;37.23;27.40;;;5.40;99.90;;;;;;5048598;28;20638;-84
2021/12/06 04:26:31;;;;;;;39.13;29.00;;;5.40;99.90;;;;;;5045510;28;20181;-81
2021/12/06 04:29:00;;;;;;;36.00;27.43;;;5.50;99.90;;;;;;5046203;28;20707;-81
2021/12/06 04:31:32;;;;;;;39.10;27.97;;;5.50;99.90;;;;;;5043615;28;20214;-84
2021/12/06 04:34:27;;;;;;;40.17;28.63;;;5.50;99.90;;;;;;5043108;28;20238;-83
2021/12/06 04:37:00;;;;;;;39.17;26.97;;;5.50;99.90;;;;;;5050896;28;20154;-85
2021/12/06 04:39:26;;;;;;;37.07;27.87;;;5.50;99.90;;;;;;5046698;28;20173;-81
2021/12/06 04:41:52;;;;;;;37.50;28.23;;;5.40;99.90;;;;;;5044837;28;20178;-84
2021/12/06 04:44:17;;;;;;;37.77;28.60;;;5.40;99.90;;;;;;5052448;28;20359;-87
2021/12/06 04:46:43;;;;;;;36.57;27.17;;;5.40;99.90;;;;;;5045436;28;20574;-86
2021/12/06 04:49:09;;;;;;;36.63;27.27;;;5.30;99.90;;;;;;5041235;28;20209;-84
2021/12/06 04:51:38;;;;;;;33.97;27.07;;;5.20;99.90;;;;;;5039288;28;20256;-86
2021/12/06 04:54:04;;;;;;;37.03;26.37;;;5.20;99.90;;;;;;5038280;28;20165;-85
2021/12/06 04:56:38;;;;;;;40.87;29.20;;;5.30;99.90;;;;;;5039138;28;20170;-86
2021/12/06 04:59:10;;;;;;;34.83;27.30;;;5.40;99.90;;;;;;5039448;28;20173;-83
2021/12/06 05:01:39;;;;;;;36.63;28.13;;;5.50;99.90;;;;;;5039905;28;20268;-86
2021/12/06 05:04:11;;;;;;;39.37;29.03;;;5.60;99.90;;;;;;5041505;28;20169;-85
2021/12/06 05:06:40;;;;;;;39.07;27.77;;;5.70;99.90;;;;;;5054269;28;20178;-82
2021/12/06 05:09:12;;;;;;;36.77;27.90;;;5.70;99.90;;;;;;5059538;28;20162;-82
2021/12/06 05:11:38;;;;;;;38.13;27.30;;;5.80;99.90;;;;;;5058838;28;20241;-87
2021/12/06 05:14:05;;;;;;;42.27;29.10;;;5.90;99.90;;;;;;5056517;28;20189;-87
2021/12/06 05:16:40;;;;;;;38.93;28.30;;;6.00;99.90;;;;;;5037819;28;20165;-85
2021/12/06 05:19:09;;;;;;;40.37;29.13;;;6.00;99.90;;;;;;5036213;28;20216;-87
2021/12/06 05:21:36;;;;;;;36.93;27.13;;;5.70;99.90;;;;;;5036392;28;20550;-87
2021/12/06 05:24:03;;;;;;;33.43;26.50;;;5.60;99.90;;;;;;5037703;28;20196;-89
2021/12/06 05:26:29;;;;;;;36.63;26.93;;;5.50;99.90;;;;;;5039425;28;20175;-81
2021/12/06 05:28:59;;;;;;;34.87;27.50;;;5.80;99.90;;;;;;5051724;28;20189;-82
2021/12/06 05:31:26;;;;;;;35.90;26.87;;;5.80;99.90;;;;;;5058613;28;20194;-87
2021/12/06 05:33:58;;;;;;;39.07;27.57;;;6.00;99.90;;;;;;5058174;28;20193;-84
2021/12/06 05:36:29;;;;;;;41.03;29.67;;;6.00;99.90;;;;;;5056714;28;20162;-82
2021/12/06 05:38:58;;;;;;;33.67;27.60;;;6.00;99.90;;;;;;5046862;28;20162;-85
2021/12/06 05:41:36;;;;;;;40.10;29.87;;;6.00;99.90;;;;;;5037496;28;20177;-88
2021/12/06 05:44:03;;;;;;;40.17;28.93;;;5.90;99.90;;;;;;5036299;28;20245;-85
2021/12/06 05:46:29;;;;;;;40.07;28.90;;;5.90;99.90;;;;;;5038088;28;20709;-86
2021/12/06 05:48:55;;;;;;;39.43;29.17;;;6.00;99.90;;;;;;5042546;28;20206;-86
2021/12/06 05:51:21;;;;;;;39.40;29.50;;;6.10;99.90;;;;;;5048204;28;20197;-86
2021/12/06 05:53:48;;;;;;;37.30;28.23;;;6.20;99.90;;;;;;5038962;28;20197;-85
2021/12/06 05:56:14;;;;;;;40.87;28.60;;;6.00;99.90;;;;;;5039767;28;20182;-82
2021/12/06 05:58:40;;;;;;;37.93;28.67;;;6.00;99.90;;;;;;5036328;28;20533;-87
2021/12/06 06:01:06;;;;;;;38.40;28.27;;;5.80;99.90;;;;;;5036126;28;20215;-88
2021/12/06 06:03:32;;;;;;;37.17;27.30;;;5.70;99.90;;;;;;5034765;28;20169;-84
2021/12/06 06:05:57;;;;;;;39.97;27.47;;;5.60;99.90;;;;;;5049512;28;20173;-83
2021/12/06 06:08:25;;;;;;;38.47;26.87;;;5.70;99.90;;;;;;5055869;28;20216;-83
2021/12/06 06:10:51;;;;;;;38.13;28.43;;;5.70;99.90;;;;;;5057319;28;20270;-86
2021/12/06 06:13:19;;;;;;;38.63;28.33;;;5.70;99.90;;;;;;5054629;28;20170;-87
2021/12/06 06:15:52;;;;;;;41.63;28.97;;;5.70;99.90;;;;;;5050297;28;20177;-87
2021/12/06 06:18:19;;;;;;;133.40;32.93;;;5.50;99.90;;;;;;5045444;28;20793;-85
2021/12/06 06:20:54;;;;;;;250.07;38.10;;;5.20;99.90;;;;;;5035566;28;20173;-86
2021/12/06 06:23:23;;;;;;;222.40;37.37;;;5.10;99.90;;;;;;5036762;28;20161;-87
2021/12/06 06:25:50;;;;;;;188.07;34.60;;;5.20;99.90;;;;;;5036520;28;20170;-87
2021/12/06 06:28:17;;;;;;;214.03;34.27;;;5.30;99.90;;;;;;5036550;28;20185;-86
2021/12/06 06:30:43;;;;;;;40.60;27.80;;;5.40;99.90;;;;;;5036123;28;20228;-87
2021/12/06 06:33:11;;;;;;;50.43;27.00;;;5.40;99.90;;;;;;5037019;28;20231;-85
2021/12/06 06:35:38;;;;;;;84.43;30.10;;;5.20;99.90;;;;;;5039432;28;20162;-84
2021/12/06 06:38:04;;;;;;;79.53;27.47;;;5.10;99.90;;;;;;5040416;28;20193;-86
2021/12/06 06:40:30;;;;;;;111.57;29.80;;;4.80;99.90;;;;;;5041241;28;20525;-86
2021/12/06 06:42:56;;;;;;;90.20;28.53;;;4.60;99.90;;;;;;5042948;28;20162;-85
2021/12/06 06:45:22;;;;;;;186.97;32.37;;;4.60;99.90;;;;;;5038726;28;20219;-84
2021/12/06 06:47:53;;;;;;;113.90;29.93;;;4.40;99.90;;;;;;5038525;28;20174;-85
2021/12/06 06:50:19;;;;;;;103.13;31.13;;;4.50;99.90;;;;;;5040248;28;20630;-83
2021/12/06 06:52:47;;;;;;;134.63;33.77;;;4.40;99.90;;;;;;5040235;28;20221;-84
2021/12/06 06:55:15;;;;;;;228.87;38.87;;;4.50;99.90;;;;;;5037573;28;20166;-85
2021/12/06 06:57:43;;;;;;;200.37;37.67;;;4.70;99.90;;;;;;5043238;28;20221;-83
2021/12/06 07:00:13;;;;;;;146.30;36.87;;;4.70;99.90;;;;;;5039734;28;20177;-87
2021/12/06 07:02:40;;;;;;;197.40;38.03;;;4.70;99.90;;;;;;5042591;28;20269;-80
2021/12/06 07:05:08;;;;;;;313.83;41.73;;;4.70;99.90;;;;;;5050734;28;20174;-84
2021/12/06 07:07:35;;;;;;;199.37;36.40;;;4.70;99.90;;;;;;5048044;28;20174;-85
2021/12/06 07:10:01;;;;;;;132.77;35.40;;;4.50;99.90;;;;;;5046022;28;20174;-84
2021/12/06 07:12:27;;;;;;;282.60;39.80;;;4.50;99.90;;;;;;5046924;28;20181;-82
2021/12/06 07:14:53;;;;;;;279.37;39.53;;;4.50;99.90;;;;;;5046908;28;20182;-84
2021/12/06 07:17:20;;;;;;;178.10;33.30;;;4.50;99.90;;;;;;5045813;28;20616;-84
2021/12/06 07:19:47;;;;;;;357.53;39.80;;;4.40;99.90;;;;;;5043779;28;20170;-84
2021/12/06 07:22:13;;;;;;;158.23;30.53;;;4.40;99.90;;;;;;5041500;28;20577;-85
2021/12/06 07:24:40;;;;;;;148.23;30.13;;;4.20;99.90;;;;;;5041911;28;20192;-84
2021/12/06 07:27:07;;;;;;;124.70;30.03;;;4.10;99.90;;;;;;5041175;28;20170;-82
2021/12/06 07:29:33;;;;;;;219.27;32.83;;;4.10;99.90;;;;;;5043243;28;20201;-84
2021/12/06 07:32:00;;;;;;;220.70;32.67;;;4.10;99.90;;;;;;5027277;28;20293;-83
2021/12/06 07:34:27;;;;;;;74.23;26.23;;;4.10;99.90;;;;;;5033104;28;20193;-84
2021/12/06 07:36:53;;;;;;;63.27;26.37;;;4.10;99.90;;;;;;5037530;28;20182;-84
2021/12/06 07:39:19;;;;;;;133.97;28.93;;;3.90;99.90;;;;;;5033489;28;20503;-82
2021/12/06 07:41:47;;;;;;;95.57;27.27;;;4.20;99.90;;;;;;5035297;28;20194;-84
2021/12/06 07:44:13;;;;;;;69.03;25.90;;;4.10;99.90;;;;;;5021908;28;20162;-86
2021/12/06 07:46:40;;;;;;;80.97;25.17;;;4.10;99.90;;;;;;5021720;28;20204;-84
2021/12/06 07:49:05;;;;;;;62.77;23.43;;;3.80;99.90;;;;;;5021958;28;20265;-85
2021/12/06 07:51:31;;;;;;;62.87;23.77;;;3.70;99.90;;;;;;5027479;28;20775;-84
2021/12/06 07:53:59;;;;;;;44.77;23.20;;;3.50;99.90;;;;;;5018307;28;20937;-85
2021/12/06 07:56:25;;;;;;;52.17;24.10;;;3.50;99.90;;;;;;5019667;28;20237;-82
2021/12/06 07:58:51;;;;;;;71.43;29.07;;;3.60;99.90;;;;;;5022456;28;20653;-85
2021/12/06 08:01:17;;;;;;;54.40;25.67;;;3.70;99.90;;;;;;5022141;28;20166;-83
2021/12/06 08:03:44;;;;;;;54.20;25.57;;;3.90;99.90;;;;;;5035264;28;20169;-86
2021/12/06 08:06:12;;;;;;;78.73;24.43;;;4.10;99.90;;;;;;5027523;28;20242;-85
2021/12/06 08:08:40;;;;;;;74.37;24.53;;;4.00;99.90;;;;;;5035781;28;20202;-83
2021/12/06 08:11:13;;;;;;;44.03;23.80;;;4.10;99.90;;;;;;5026899;28;20189;-84
2021/12/06 08:13:44;;;;;;;52.17;23.40;;;4.00;99.90;;;;;;5031953;28;20181;-82
2021/12/06 08:16:16;;;;;;;54.20;23.57;;;3.90;99.90;;;;;;5029977;28;20248;-85
2021/12/06 08:18:44;;;;;;;50.47;21.63;;;3.70;99.90;;;;;;5053815;28;20165;-79
2021/12/06 08:21:10;;;;;;;39.77;20.20;;;3.90;99.90;;;;;;5040081;28;20168;-82
2021/12/06 08:23:36;;;;;;;40.00;20.47;;;3.80;99.90;;;;;;5038697;28;20181;-80
2021/12/06 08:26:05;;;;;;;46.53;20.03;;;3.60;99.90;;;;;;5041012;28;20178;-85
2021/12/06 08:28:34;;;;;;;35.83;20.93;;;3.40;99.90;;;;;;5050386;28;20193;-83
2021/12/06 08:31:05;;;;;;;38.73;19.90;;;3.30;99.90;;;;;;5060002;28;20247;-82
2021/12/06 08:33:34;;;;;;;37.57;20.57;;;3.20;99.90;;;;;;5060252;28;20277;-80
2021/12/06 08:36:01;;;;;;;48.47;20.80;;;3.00;99.90;;;;;;5060221;28;20190;-84
2021/12/06 08:38:39;;;;;;;39.57;18.83;;;3.10;99.90;;;;;;5055313;28;20181;-82
2021/12/06 08:41:13;;;;;;;35.50;20.03;;;2.90;99.90;;;;;;5054544;28;20244;-85
2021/12/06 08:43:48;;;;;;;33.07;18.93;;;3.00;99.90;;;;;;5050042;28;20185;-87
2021/12/06 08:46:25;;;;;;;28.57;18.87;;;3.00;99.90;;;;;;5049747;28;20192;-85
2021/12/06 08:48:57;;;;;;;31.63;17.43;;;3.10;99.90;;;;;;5029950;28;20192;-84
2021/12/06 08:51:34;;;;;;;33.20;17.97;;;3.00;99.90;;;;;;5033139;28;20232;-84
2021/12/06 08:54:02;;;;;;;35.27;19.10;;;3.10;99.90;;;;;;5056477;28;20233;-82
2021/12/06 08:56:31;;;;;;;44.13;20.97;;;3.20;99.90;;;;;;5059862;28;20165;-80
2021/12/06 08:58:59;;;;;;;29.27;19.53;;;3.30;99.90;;;;;;5058420;28;20201;-81
2021/12/06 09:01:26;;;;;;;31.40;18.30;;;3.60;99.90;;;;;;5051393;28;20256;-80
2021/12/06 09:03:58;;;;;;;30.27;19.73;;;3.40;99.90;;;;;;5042552;28;20162;-80
2021/12/06 09:06:26;;;;;;;35.40;21.13;;;3.50;99.90;;;;;;5038359;28;20182;-80
2021/12/06 09:08:57;;;;;;;30.50;20.10;;;3.40;99.90;;;;;;5035741;28;20166;-79
2021/12/06 09:11:24;;;;;;;29.87;20.90;;;3.60;99.90;;;;;;5036902;28;20216;-80
2021/12/06 09:13:50;;;;;;;30.03;20.43;;;3.60;99.90;;;;;;5037236;28;20166;-78
2021/12/06 09:16:16;;;;;;;27.77;20.03;;;3.60;99.90;;;;;;5035106;28;20187;-80
2021/12/06 09:18:42;;;;;;;27.40;20.17;;;3.60;99.90;;;;;;5036550;28;20166;-81
2021/12/06 09:21:13;;;;;;;24.87;19.63;;;3.80;99.90;;;;;;5035490;28;20551;-82
2021/12/06 09:23:40;;;;;;;27.30;19.30;;;4.10;99.90;;;;;;5035549;28;20187;-79
2021/12/06 09:26:08;;;;;;;31.03;20.37;;;4.30;99.90;;;;;;5036619;28;20169;-79
2021/12/06 09:28:36;;;;;;;26.27;18.93;;;4.50;99.90;;;;;;5019299;28;20255;-80
2021/12/06 09:31:04;;;;;;;27.00;19.97;;;4.60;99.90;;;;;;5035042;28;20213;-80
2021/12/06 09:33:32;;;;;;;30.30;21.60;;;4.70;99.90;;;;;;5035832;28;20189;-80
2021/12/06 09:35:59;;;;;;;29.13;20.97;;;4.70;99.90;;;;;;5033808;28;20224;-79
2021/12/06 09:38:34;;;;;;;26.23;19.50;;;4.90;99.90;;;;;;5035689;28;20178;-79
2021/12/06 09:41:04;;;;;;;26.93;20.20;;;4.90;99.90;;;;;;5034149;28;20284;-80
2021/12/06 09:43:31;;;;;;;26.63;19.30;;;4.90;99.90;;;;;;5035421;28;20173;-79
2021/12/06 09:45:57;;;;;;;28.33;21.13;;;5.00;99.90;;;;;;5036670;28;20166;-78
2021/12/06 09:48:24;;;;;;;22.87;18.67;;;5.10;99.90;;;;;;5037692;28;20622;-83
2021/12/06 09:50:57;;;;;;;23.47;18.83;;;5.00;99.90;;;;;;5035677;28;20205;-79
2021/12/06 09:53:29;;;;;;;26.07;19.00;;;5.00;99.90;;;;;;5036975;28;20264;-79
2021/12/06 09:55:58;;;;;;;22.80;17.97;;;5.10;99.90;;;;;;5036063;28;20185;-81
2021/12/06 09:58:25;;;;;;;24.27;16.67;;;5.30;99.90;;;;;;5037093;28;20252;-83
2021/12/06 10:00:57;;;;;;;23.17;16.30;;;5.40;99.90;;;;;;5036409;28;20241;-80
2021/12/06 10:03:28;;;;;;;23.33;18.43;;;5.50;99.90;;;;;;5037067;28;20169;-79
2021/12/06 10:06:02;;;;;;;18.50;14.77;;;5.50;99.90;;;;;;5036774;28;20185;-79
2021/12/06 10:08:34;;;;;;;21.10;15.80;;;5.60;99.90;;;;;;5036647;28;20173;-79
2021/12/06 10:11:03;;;;;;;19.87;17.27;;;5.70;99.90;;;;;;5037169;28;20197;-80
2021/12/06 10:13:29;;;;;;;17.40;12.57;;;5.80;99.60;;;;;;5037064;28;20178;-81
2021/12/06 10:15:58;;;;;;;16.53;12.53;;;5.90;98.30;;;;;;5040582;28;20228;-82
2021/12/06 10:18:26;;;;;;;14.87;11.73;;;6.00;95.30;;;;;;5026293;28;20205;-86
2021/12/06 10:20:52;;;;;;;15.67;10.17;;;6.00;93.50;;;;;;5026746;28;20229;-83
2021/12/06 10:23:19;;;;;;;46.53;34.30;;;6.00;92.40;;;;;;5018939;28;20220;-78
2021/12/06 10:25:50;;;;;;;21.23;13.63;;;6.00;91.70;;;;;;5014886;28;20252;-78
2021/12/06 10:28:19;;;;;;;14.80;10.03;;;6.00;91.00;;;;;;5014663;28;20285;-80
2021/12/06 10:30:51;;;;;;;14.57;10.70;;;6.10;90.30;;;;;;5019403;28;20204;-80
2021/12/06 10:33:23;;;;;;;14.20;10.00;;;6.20;89.80;;;;;;5014820;28;20198;-82
2021/12/06 10:35:54;;;;;;;23.60;18.50;;;6.30;87.80;;;;;;5013973;28;20276;-80
2021/12/06 10:38:33;;;;;;;12.27;10.00;;;6.40;86.80;;;;;;5016094;28;20170;-79
2021/12/06 10:41:15;;;;;;;10.27;8.87;;;6.40;83.10;;;;;;5034591;28;20185;-81
2021/12/06 10:43:57;;;;;;;14.13;9.57;;;6.40;81.60;;;;;;5034884;28;20166;-79
2021/12/06 10:46:28;;;;;;;10.93;8.40;;;6.50;80.10;;;;;;5035078;28;20153;-80
2021/12/06 10:49:01;;;;;;;11.73;9.33;;;6.50;78.00;;;;;;5038638;28;20237;-80
2021/12/06 10:51:29;;;;;;;10.67;8.37;;;6.50;78.30;;;;;;5044110;28;20677;-78
2021/12/06 10:54:04;;;;;;;11.83;9.33;;;6.40;79.00;;;;;;5040075;28;20168;-81
2021/12/06 10:56:46;;;;;;;11.77;8.97;;;6.50;79.00;;;;;;5039494;28;20180;-80
2021/12/06 10:59:21;;;;;;;10.13;9.03;;;6.70;79.50;;;;;;5039331;28;20239;-79
2021/12/06 11:01:51;;;;;;;14.00;9.87;;;6.70;77.40;;;;;;5039386;28;20181;-85
2021/12/06 11:04:20;;;;;;;21.37;9.33;;;6.70;77.00;;;;;;5039771;28;20185;-80
2021/12/06 11:06:50;;;;;;;15.50;10.13;;;6.60;79.00;;;;;;5044780;28;20173;-83
2021/12/06 11:09:22;;;;;;;11.73;9.90;;;6.60;79.00;;;;;;5046132;28;20170;-77
2021/12/06 11:11:53;;;;;;;12.60;10.07;;;6.60;80.50;;;;;;5042066;28;20216;-78
2021/12/06 11:14:30;;;;;;;13.67;10.60;;;6.60;82.00;;;;;;5043821;28;20170;-84
2021/12/06 11:17:08;;;;;;;13.50;10.33;;;6.70;82.30;;;;;;5053163;28;20637;-82
2021/12/06 11:19:34;;;;;;;12.03;9.23;;;6.70;81.40;;;;;;5053001;28;20166;-81
2021/12/06 11:22:12;;;;;;;10.63;8.87;;;6.80;81.70;;;;;;5049485;28;20166;-79
2021/12/06 11:24:41;;;;;;;11.33;8.77;;;6.80;80.40;;;;;;5049296;28;20165;-84
2021/12/06 11:27:14;;;;;;;12.83;9.03;;;6.90;78.30;;;;;;5049574;28;20185;-83
2021/12/06 11:29:46;;;;;;;15.93;11.23;;;7.00;75.70;;;;;;5048257;28;20223;-85
2021/12/06 11:32:17;;;;;;;13.80;10.27;;;7.00;72.50;;;;;;5028842;28;20222;-85
2021/12/06 11:34:59;;;;;;;10.50;8.23;;;7.00;71.60;;;;;;5032991;28;20185;-87
2021/12/06 11:38:10;;;;;;;13.67;9.27;;;7.00;71.70;;;;;;5034392;28;20166;-87
2021/12/06 11:40:38;;;;;;;12.97;9.13;;;7.00;73.50;;;;;;5048476;28;20712;-87
2021/12/06 11:43:16;;;;;;;11.80;8.23;;;7.20;74.40;;;;;;5047287;28;20224;-85
2021/12/06 11:45:46;;;;;;;12.00;10.33;;;7.10;73.20;;;;;;5038827;28;20159;-85
2021/12/06 11:48:31;;;;;;;12.30;8.43;;;7.20;72.00;;;;;;5033663;28;20562;-86
2021/12/06 11:51:04;;;;;;;11.93;9.17;;;7.20;70.60;;;;;;5032148;28;20200;-87
2021/12/06 11:53:49;;;;;;;9.23;7.53;;;7.00;73.10;;;;;;5024009;28;20161;-86
2021/12/06 11:56:21;;;;;;;11.70;8.07;;;6.90;72.80;;;;;;5026030;28;20616;-85
2021/12/06 11:59:04;;;;;;;9.00;7.30;;;6.90;73.30;;;;;;5026947;28;20207;-88
2021/12/06 12:01:38;;;;;;;9.63;6.93;;;7.00;71.70;;;;;;5030812;28;20264;-87
2021/12/06 12:04:11;;;;;;;9.53;7.57;;;7.10;70.40;;;;;;5050273;28;20165;-86
2021/12/06 12:06:40;;;;;;;8.80;6.40;;;7.40;66.50;;;;;;5059627;28;20184;-83
2021/12/06 12:09:17;;;;;;;9.57;6.60;;;7.30;60.50;;;;;;5058585;28;20146;-83
2021/12/06 12:12:10;;;;;;;8.47;6.43;;;7.20;59.70;;;;;;5058108;28;20287;-86
2021/12/06 12:14:55;;;;;;;7.60;6.67;;;7.20;59.80;;;;;;5054222;28;20162;-83
2021/12/06 12:17:33;;;;;;;8.27;6.13;;;7.20;59.90;;;;;;5052535;28;20192;-86
2021/12/06 12:20:04;;;;;;;8.67;6.30;;;7.10;60.90;;;;;;5053404;28;20181;-84
2021/12/06 12:22:31;;;;;;;10.33;6.43;;;7.10;61.30;;;;;;5058298;28;20161;-79
2021/12/06 12:25:05;;;;;;;10.33;6.90;;;7.20;60.60;;;;;;5060259;28;20150;-79
2021/12/06 12:27:40;;;;;;;8.53;6.03;;;7.40;59.00;;;;;;5056421;28;20154;-84
2021/12/06 12:30:10;;;;;;;9.47;6.40;;;7.40;57.50;;;;;;5057483;28;20162;-79
2021/12/06 12:33:04;;;;;;;7.60;6.27;;;7.30;58.80;;;;;;5054049;28;20239;-80
2021/12/06 12:35:32;;;;;;;8.23;6.53;;;7.30;59.70;;;;;;5045535;28;20281;-85
2021/12/06 12:38:00;;;;;;;9.00;6.77;;;7.30;59.40;;;;;;5043119;28;20185;-86
2021/12/06 12:40:37;;;;;;;8.57;6.73;;;7.30;60.70;;;;;;5045002;28;20162;-85
2021/12/06 12:43:10;;;;;;;9.47;7.07;;;7.20;62.50;;;;;;5046408;28;20266;-86
2021/12/06 12:45:40;;;;;;;11.67;6.83;;;7.20;63.40;;;;;;5044516;28;20157;-83
2021/12/06 12:48:25;;;;;;;12.17;7.57;;;7.20;64.00;;;;;;5049970;28;20173;-81
2021/12/06 12:51:26;;;;;;;12.33;6.93;;;7.20;64.10;;;;;;5059191;28;20194;-82
2021/12/06 12:54:18;;;;;;;12.93;7.37;;;7.20;64.00;;;;;;5056573;28;20618;-81
2021/12/06 12:56:57;;;;;;;12.37;8.20;;;7.30;64.20;;;;;;5054502;28;20542;-82
2021/12/06 13:00:02;;;;;;;10.73;6.87;;;7.20;62.60;;;;;;5043526;28;20235;-86
2021/12/06 13:02:45;;;;;;;10.37;7.67;;;7.10;63.40;;;;;;5041720;28;20150;-88
2021/12/06 13:05:25;;;;;;;11.30;7.37;;;7.00;63.90;;;;;;5041388;28;20158;-84
2021/12/06 13:07:55;;;;;;;9.73;6.73;;;7.00;66.50;;;;;;5041804;28;20173;-85
2021/12/06 13:10:22;;;;;;;8.73;6.80;;;7.10;68.90;;;;;;5039734;28;20191;-89